Time;durP1;ratioP1;P1;durP2;ratioP2;P2;SDS_P1;SDS_P2;PMS_P1;PMS_P2;Temp;Humidity;BMP_temperature;BMP_pressure;BME280_temperature;BME280_humidity;BME280_pressure;Samples;Min_cycle;Max_cycle;Signal;HPM_P1;HPM_P2
2023/09/24 03:01:14;;;;;;;0.70;0.70;;;22.40;48.90;;;;;;5729787;23;46221;-44
2023/09/24 03:03:40;;;;;;;2.37;0.80;;;22.40;49.00;;;;;;4829834;28;45096;-43
2023/09/24 03:06:09;;;;;;;0.90;0.80;;;22.40;48.90;;;;;;4836942;29;45392;-45
2023/09/24 03:08:35;;;;;;;1.95;0.70;;;22.50;48.90;;;;;;4852309;29;45267;-43
2023/09/24 03:11:00;;;;;;;1.08;0.80;;;22.40;48.90;;;;;;4856619;29;45434;-43
2023/09/24 03:13:26;;;;;;;1.53;0.93;;;22.40;48.90;;;;;;4851296;29;46195;-44
2023/09/24 03:15:51;;;;;;;1.40;0.83;;;22.50;48.90;;;;;;4804993;29;45361;-43
2023/09/24 03:18:17;;;;;;;1.90;1.00;;;22.40;48.80;;;;;;4836898;29;45322;-44
2023/09/24 03:20:44;;;;;;;1.40;1.00;;;22.40;48.80;;;;;;4825754;29;46474;-43
2023/09/24 03:23:09;;;;;;;1.35;1.00;;;22.40;48.80;;;;;;4840871;29;45543;-43
2023/09/24 03:25:35;;;;;;;1.33;0.90;;;22.40;48.80;;;;;;4838540;29;45207;-43
2023/09/24 03:28:01;;;;;;;1.60;0.90;;;22.40;48.80;;;;;;4843283;29;45493;-42
2023/09/24 03:30:29;;;;;;;1.03;0.90;;;22.40;48.70;;;;;;4827789;29;45057;-44
2023/09/24 03:32:55;;;;;;;1.50;0.75;;;22.40;48.70;;;;;;4822840;29;45256;-42
2023/09/24 03:35:23;;;;;;;1.33;0.90;;;22.40;48.70;;;;;;4830366;29;45963;-43
2023/09/24 03:37:48;;;;;;;1.20;0.80;;;22.40;48.70;;;;;;4840312;29;45009;-42
2023/09/24 03:40:15;;;;;;;1.27;0.80;;;22.40;48.60;;;;;;4855082;29;45339;-43
2023/09/24 03:42:41;;;;;;;1.60;1.00;;;22.40;48.60;;;;;;4842489;29;45439;-42
2023/09/24 03:45:09;;;;;;;1.45;1.00;;;22.40;48.60;;;;;;4837952;29;47147;-43
2023/09/24 03:47:36;;;;;;;0.77;0.70;;;22.40;48.60;;;;;;4820197;29;44879;-43
2023/09/24 03:50:03;;;;;;;2.47;0.93;;;22.40;48.60;;;;;;4846868;29;44834;-43
2023/09/24 03:52:30;;;;;;;0.80;0.73;;;22.40;48.60;;;;;;4826501;29;45647;-43
2023/09/24 03:54:57;;;;;;;2.47;0.90;;;22.40;48.60;;;;;;4845722;29;45131;-43
2023/09/24 03:57:27;;;;;;;1.60;1.00;;;22.40;48.50;;;;;;4835991;29;45202;-44
2023/09/24 03:59:54;;;;;;;0.93;0.85;;;22.40;48.50;;;;;;4850026;29;45092;-43
2023/09/24 04:02:20;;;;;;;1.33;0.90;;;22.40;48.50;;;;;;4825095;29;45424;-42
2023/09/24 04:04:46;;;;;;;1.23;0.93;;;22.40;48.50;;;;;;4844829;29;46103;-42
2023/09/24 04:07:12;;;;;;;1.25;0.80;;;22.30;48.50;;;;;;4838585;29;44991;-42
2023/09/24 04:09:38;;;;;;;0.90;0.80;;;22.40;48.50;;;;;;4847212;29;45342;-43
2023/09/24 04:12:04;;;;;;;1.00;0.90;;;22.40;48.50;;;;;;4844724;29;45433;-41
2023/09/24 04:14:31;;;;;;;1.23;0.80;;;22.40;48.50;;;;;;4844680;29;45518;-43
2023/09/24 04:16:56;;;;;;;1.25;0.80;;;22.40;48.40;;;;;;4814979;29;51763;-42
2023/09/24 04:19:24;;;;;;;0.90;0.70;;;22.30;48.30;;;;;;4844781;29;45347;-42
2023/09/24 04:21:53;;;;;;;1.30;0.90;;;22.30;48.30;;;;;;4808378;29;45518;-44
2023/09/24 04:24:19;;;;;;;1.20;0.90;;;22.30;48.30;;;;;;4847341;29;45182;-42
2023/09/24 04:26:47;;;;;;;1.33;0.80;;;22.30;48.30;;;;;;4834913;29;45342;-42
2023/09/24 04:29:15;;;;;;;0.73;0.70;;;22.30;48.30;;;;;;4852027;29;44909;-44
2023/09/24 04:31:42;;;;;;;1.00;0.70;;;22.30;48.30;;;;;;4821680;29;45567;-44
2023/09/24 04:34:09;;;;;;;1.30;0.80;;;22.30;48.30;;;;;;4842886;29;45796;-43
2023/09/24 04:36:35;;;;;;;1.63;0.80;;;22.30;48.20;;;;;;4833195;29;45299;-42
2023/09/24 04:39:01;;;;;;;1.20;0.90;;;22.30;48.20;;;;;;4843942;29;45131;-44
2023/09/24 04:41:26;;;;;;;1.52;0.82;;;22.30;48.20;;;;;;4834110;29;45797;-42
2023/09/24 04:43:52;;;;;;;0.80;0.60;;;22.30;48.20;;;;;;4843712;29;46494;-44
2023/09/24 04:46:18;;;;;;;1.00;0.80;;;22.30;48.20;;;;;;4820589;29;45573;-42
2023/09/24 04:48:43;;;;;;;0.80;0.77;;;22.40;48.20;;;;;;4845735;29;45344;-44
2023/09/24 04:51:09;;;;;;;2.20;0.83;;;22.30;48.10;;;;;;4835263;29;45638;-44
2023/09/24 04:53:35;;;;;;;1.42;0.82;;;22.30;48.10;;;;;;4850293;29;45605;-42
2023/09/24 04:56:06;;;;;;;0.85;0.70;;;22.30;48.10;;;;;;4829076;29;46045;-42
2023/09/24 04:58:31;;;;;;;2.55;1.10;;;22.30;48.10;;;;;;4855212;29;45445;-42
2023/09/24 05:01:07;;;;;;;1.20;0.63;;;22.30;48.10;;;;;;4805688;29;45302;-42
2023/09/24 05:03:34;;;;;;;1.92;0.90;;;22.30;48.10;;;;;;4842869;29;45574;-41
2023/09/24 05:06:03;;;;;;;1.27;0.90;;;22.30;48.10;;;;;;4823713;29;45043;-45
2023/09/24 05:08:29;;;;;;;1.25;0.80;;;22.30;48.60;;;;;;4856393;29;45183;-43
2023/09/24 05:10:54;;;;;;;0.80;0.80;;;22.30;48.00;;;;;;4830810;29;45332;-41
2023/09/24 05:13:20;;;;;;;1.70;0.70;;;22.30;48.00;;;;;;4841460;29;45669;-42
2023/09/24 05:15:53;;;;;;;2.17;0.73;;;22.30;48.00;;;;;;4817275;29;46926;-42
2023/09/24 05:18:23;;;;;;;1.90;0.98;;;22.30;48.00;;;;;;4841422;29;45196;-42
2023/09/24 05:20:48;;;;;;;1.40;0.77;;;22.30;48.00;;;;;;4830021;29;45435;-42
2023/09/24 05:23:14;;;;;;;1.43;0.80;;;22.30;47.90;;;;;;4835822;29;46171;-42
2023/09/24 05:25:40;;;;;;;1.80;0.80;;;22.30;47.90;;;;;;4828561;29;45490;-42
2023/09/24 05:28:06;;;;;;;1.10;0.80;;;22.20;47.90;;;;;;4843691;29;45883;-42
2023/09/24 05:30:32;;;;;;;1.65;0.82;;;22.30;47.90;;;;;;4833323;29;45235;-42
2023/09/24 05:32:57;;;;;;;1.90;0.80;;;22.20;47.90;;;;;;4829439;29;45195;-44
2023/09/24 05:35:23;;;;;;;1.20;0.80;;;22.30;47.90;;;;;;4835684;29;45444;-43
2023/09/24 05:37:48;;;;;;;1.10;0.90;;;22.20;47.80;;;;;;4839041;29;45316;-43
2023/09/24 05:40:14;;;;;;;2.20;0.90;;;22.20;47.80;;;;;;4839954;29;45552;-42
2023/09/24 05:42:43;;;;;;;1.00;0.75;;;22.30;47.80;;;;;;4837873;29;46069;-44
2023/09/24 05:45:09;;;;;;;0.80;0.63;;;22.20;48.40;;;;;;4836709;29;45628;-42
2023/09/24 05:47:35;;;;;;;1.42;0.90;;;22.20;47.80;;;;;;4826505;29;45307;-42
2023/09/24 05:50:03;;;;;;;1.57;1.00;;;22.20;47.80;;;;;;4839113;29;45171;-42
2023/09/24 05:52:29;;;;;;;1.00;0.90;;;22.20;47.80;;;;;;4830306;29;46650;-42
2023/09/24 05:54:55;;;;;;;2.00;0.93;;;22.20;48.40;;;;;;4828337;29;45483;-43
2023/09/24 05:57:21;;;;;;;2.25;0.90;;;22.20;47.70;;;;;;4832908;29;45258;-44
2023/09/24 05:59:46;;;;;;;1.40;0.80;;;22.20;47.80;;;;;;4847105;29;45309;-44
2023/09/24 06:02:12;;;;;;;1.98;0.90;;;22.20;47.70;;;;;;4823264;29;45301;-42
2023/09/24 06:04:39;;;;;;;1.63;0.90;;;22.20;47.80;;;;;;4825266;29;45273;-43
2023/09/24 06:07:05;;;;;;;1.13;0.80;;;22.20;47.70;;;;;;4830490;29;45144;-44
2023/09/24 06:09:31;;;;;;;1.10;0.63;;;22.20;47.70;;;;;;4837720;29;45021;-43
2023/09/24 06:11:57;;;;;;;1.00;0.77;;;22.10;47.60;;;;;;4832439;29;45761;-42
2023/09/24 06:14:23;;;;;;;1.80;1.00;;;22.20;47.70;;;;;;4833268;29;45241;-41
2023/09/24 06:16:48;;;;;;;1.92;0.90;;;22.20;47.60;;;;;;4790130;29;45815;-42
2023/09/24 06:19:14;;;;;;;1.02;0.70;;;22.20;47.60;;;;;;4827084;29;45447;-42
2023/09/24 06:21:39;;;;;;;1.20;0.85;;;22.20;47.60;;;;;;4830892;29;45854;-43
2023/09/24 06:24:06;;;;;;;1.15;0.80;;;22.20;47.60;;;;;;4834604;29;45148;-44
2023/09/24 06:26:31;;;;;;;1.37;0.67;;;22.20;47.60;;;;;;4829977;29;45319;-41
2023/09/24 06:28:57;;;;;;;1.63;0.83;;;22.20;47.60;;;;;;4839567;29;44987;-42
2023/09/24 06:31:22;;;;;;;2.00;0.70;;;22.10;47.50;;;;;;4827833;29;45322;-42
2023/09/24 06:33:48;;;;;;;1.37;0.80;;;22.20;47.60;;;;;;4837007;29;44675;-44
2023/09/24 06:36:17;;;;;;;1.50;0.80;;;22.10;47.90;;;;;;4833830;29;45395;-44
2023/09/24 06:38:44;;;;;;;1.90;0.82;;;22.10;47.50;;;;;;4823799;29;45940;-45
2023/09/24 06:41:09;;;;;;;2.15;0.70;;;22.20;47.50;;;;;;4833345;29;46230;-44
2023/09/24 06:43:35;;;;;;;1.75;0.80;;;22.10;47.50;;;;;;4837974;29;45250;-44
2023/09/24 06:46:04;;;;;;;1.30;0.60;;;22.10;47.50;;;;;;4820483;29;45437;-44
2023/09/24 06:48:31;;;;;;;1.63;0.80;;;22.10;47.50;;;;;;4839432;29;45616;-44
2023/09/24 06:51:07;;;;;;;1.90;0.95;;;22.20;47.60;;;;;;4827286;29;46071;-44
2023/09/24 06:53:33;;;;;;;1.75;0.70;;;22.20;47.50;;;;;;4845291;29;45315;-43
2023/09/24 06:56:26;;;;;;;1.65;0.95;;;22.20;47.60;;;;;;4834192;29;45558;-45
2023/09/24 06:58:51;;;;;;;1.60;0.70;;;22.10;47.50;;;;;;4832987;29;45244;-43
2023/09/24 07:01:17;;;;;;;1.67;0.90;;;22.10;47.50;;;;;;4813980;29;45198;-42
2023/09/24 07:03:42;;;;;;;1.10;0.68;;;22.20;47.60;;;;;;4841480;29;45472;-43
2023/09/24 07:06:08;;;;;;;1.00;0.70;;;22.10;47.50;;;;;;4821409;29;45763;-43
2023/09/24 07:08:33;;;;;;;1.45;0.90;;;22.20;47.60;;;;;;4842547;29;45651;-43
2023/09/24 07:11:25;;;;;;;1.13;0.70;;;22.20;47.60;;;;;;4826685;29;45315;-43
2023/09/24 07:13:50;;;;;;;2.00;0.90;;;22.10;47.50;;;;;;4843885;29;45267;-43
2023/09/24 07:16:17;;;;;;;1.03;0.77;;;22.10;47.50;;;;;;4807897;29;45598;-44
2023/09/24 07:18:43;;;;;;;0.80;0.73;;;22.20;47.60;;;;;;4841945;29;45218;-45
2023/09/24 07:21:09;;;;;;;1.20;0.90;;;22.10;47.50;;;;;;4818958;29;46434;-43
2023/09/24 07:23:34;;;;;;;1.30;1.00;;;22.10;47.60;;;;;;4846599;29;45265;-43
2023/09/24 07:26:00;;;;;;;1.20;0.90;;;22.10;47.50;;;;;;4840363;29;45599;-44
2023/09/24 07:28:25;;;;;;;1.10;0.80;;;22.10;47.50;;;;;;4848367;29;45613;-43
2023/09/24 07:30:52;;;;;;;0.73;0.70;;;22.20;47.60;;;;;;4816296;29;45661;-43
2023/09/24 07:33:18;;;;;;;1.30;0.90;;;22.10;47.50;;;;;;4841455;29;45744;-43
2023/09/24 07:35:44;;;;;;;1.50;0.90;;;22.20;47.60;;;;;;4838171;29;45152;-44
2023/09/24 07:38:09;;;;;;;1.50;1.10;;;22.10;47.60;;;;;;4843274;29;45334;-43
2023/09/24 07:40:35;;;;;;;1.58;1.00;;;22.10;47.50;;;;;;4836854;29;45207;-44
2023/09/24 07:43:00;;;;;;;1.90;1.00;;;22.10;47.60;;;;;;4837124;29;46138;-44
2023/09/24 07:45:26;;;;;;;1.80;0.93;;;22.10;47.60;;;;;;4830871;29;45349;-44
2023/09/24 07:47:52;;;;;;;1.13;0.95;;;22.10;47.60;;;;;;4819915;29;45596;-43
2023/09/24 07:50:17;;;;;;;1.30;0.90;;;22.10;47.60;;;;;;4834578;29;45630;-44
2023/09/24 07:52:43;;;;;;;2.20;1.10;;;22.10;47.60;;;;;;4817387;29;45551;-43
2023/09/24 07:55:08;;;;;;;1.13;1.03;;;22.10;47.60;;;;;;4834210;29;46615;-44
2023/09/24 07:57:34;;;;;;;1.70;0.90;;;22.10;47.60;;;;;;4846601;29;45946;-44
2023/09/24 08:00:00;;;;;;;1.50;0.87;;;22.10;47.60;;;;;;4839011;29;47267;-43
2023/09/24 08:02:26;;;;;;;1.53;1.10;;;22.10;47.60;;;;;;4821228;29;45640;-43
2023/09/24 08:04:52;;;;;;;1.83;1.08;;;22.10;47.60;;;;;;4842281;29;45823;-44
2023/09/24 08:07:17;;;;;;;1.40;0.98;;;22.10;47.70;;;;;;4839867;29;44729;-44
2023/09/24 08:09:43;;;;;;;1.10;0.90;;;22.10;47.60;;;;;;4848904;29;45223;-43
2023/09/24 08:12:09;;;;;;;1.77;1.20;;;22.10;47.60;;;;;;4821088;29;45714;-43
2023/09/24 08:14:34;;;;;;;1.60;1.00;;;22.10;47.60;;;;;;4836864;29;45168;-44
2023/09/24 08:17:00;;;;;;;1.10;0.90;;;22.10;47.60;;;;;;4819020;29;45168;-43
2023/09/24 08:19:30;;;;;;;1.13;0.80;;;22.10;47.70;;;;;;4845667;29;46263;-43
2023/09/24 08:21:55;;;;;;;0.88;0.88;;;22.10;47.70;;;;;;4827178;29;45257;-43
2023/09/24 08:24:22;;;;;;;1.80;1.00;;;22.10;47.70;;;;;;4839602;29;48319;-44
2023/09/24 08:26:47;;;;;;;1.00;0.90;;;22.10;47.70;;;;;;4820432;29;46165;-43
2023/09/24 08:29:13;;;;;;;1.13;0.83;;;22.10;47.70;;;;;;4818458;29;45459;-44
2023/09/24 08:31:38;;;;;;;1.80;1.00;;;22.10;47.70;;;;;;4811955;29;45708;-43
2023/09/24 08:34:04;;;;;;;1.55;1.02;;;22.10;47.70;;;;;;4811044;29;45602;-43
2023/09/24 08:36:29;;;;;;;1.58;1.00;;;22.10;47.70;;;;;;4821049;29;46089;-43
2023/09/24 08:38:56;;;;;;;1.10;0.82;;;22.10;47.70;;;;;;4836692;29;46032;-43
2023/09/24 08:41:21;;;;;;;1.23;0.93;;;22.10;47.70;;;;;;4825156;29;45621;-44
2023/09/24 08:43:47;;;;;;;2.08;1.00;;;22.10;47.70;;;;;;4826621;29;45209;-43
2023/09/24 08:46:12;;;;;;;1.05;0.73;;;22.10;47.80;;;;;;4815648;29;45214;-44
2023/09/24 08:48:39;;;;;;;2.25;1.00;;;22.10;47.80;;;;;;4811336;29;45692;-43
2023/09/24 08:51:06;;;;;;;1.38;0.95;;;22.10;47.80;;;;;;4827396;29;45290;-43
2023/09/24 08:53:33;;;;;;;1.33;0.90;;;22.10;47.80;;;;;;4831600;29;45401;-44
2023/09/24 08:55:58;;;;;;;1.30;0.87;;;22.10;47.80;;;;;;4804207;29;46503;-43
2023/09/24 08:58:25;;;;;;;1.50;1.03;;;22.10;47.80;;;;;;4829418;29;45953;-43
2023/09/24 09:00:51;;;;;;;1.27;1.05;;;22.10;47.80;;;;;;4820685;29;46245;-43
2023/09/24 09:03:17;;;;;;;1.83;0.98;;;22.10;47.80;;;;;;4823569;29;45240;-44
2023/09/24 09:05:43;;;;;;;1.48;0.90;;;22.10;47.80;;;;;;4824820;29;45273;-43
2023/09/24 09:08:09;;;;;;;2.15;1.02;;;22.10;47.80;;;;;;4818100;29;48958;-43
2023/09/24 09:10:36;;;;;;;1.77;0.98;;;22.10;47.90;;;;;;4828417;29;46285;-43
2023/09/24 09:13:11;;;;;;;1.38;0.95;;;22.10;47.90;;;;;;4826337;29;45813;-43
2023/09/24 09:15:40;;;;;;;1.38;0.98;;;22.10;47.90;;;;;;4818041;29;45666;-43
2023/09/24 09:18:06;;;;;;;1.63;0.98;;;22.10;47.90;;;;;;4833321;29;46400;-43
2023/09/24 09:20:40;;;;;;;1.20;0.85;;;22.10;47.90;;;;;;4820345;29;44627;-44
2023/09/24 09:23:10;;;;;;;2.15;0.88;;;22.10;47.90;;;;;;4829589;29;45629;-44
2023/09/24 09:25:49;;;;;;;1.08;0.90;;;22.10;47.90;;;;;;4821356;29;45670;-44
2023/09/24 09:28:25;;;;;;;1.27;0.90;;;22.10;47.90;;;;;;4821778;29;46238;-44
2023/09/24 09:30:58;;;;;;;1.70;1.00;;;22.10;47.90;;;;;;4818889;29;45841;-43
2023/09/24 09:33:26;;;;;;;1.08;0.82;;;22.10;48.00;;;;;;4823685;29;45267;-44
2023/09/24 09:35:51;;;;;;;1.50;0.90;;;22.10;47.90;;;;;;4825868;29;45310;-44
2023/09/24 09:38:17;;;;;;;1.07;0.80;;;22.10;47.90;;;;;;4817455;29;44941;-43
2023/09/24 09:40:43;;;;;;;1.40;1.00;;;22.10;47.90;;;;;;4825823;29;45521;-43
2023/09/24 09:43:10;;;;;;;2.10;1.00;;;22.10;48.00;;;;;;4822579;29;45497;-44
2023/09/24 09:45:35;;;;;;;1.90;1.20;;;22.10;48.00;;;;;;4819724;29;45349;-43
2023/09/24 09:48:04;;;;;;;1.43;0.90;;;22.10;48.00;;;;;;4813922;29;45278;-44
2023/09/24 09:50:34;;;;;;;1.60;1.00;;;22.10;48.00;;;;;;4817949;29;45307;-44
2023/09/24 09:53:01;;;;;;;1.13;0.80;;;22.10;48.00;;;;;;4831922;29;45274;-44
2023/09/24 09:55:27;;;;;;;2.13;0.90;;;22.10;48.00;;;;;;4807675;29;45771;-45
2023/09/24 09:57:52;;;;;;;1.27;0.90;;;22.10;48.00;;;;;;4835575;29;46051;-44
2023/09/24 10:00:19;;;;;;;2.20;0.97;;;22.10;48.00;;;;;;4817183;29;45331;-44
2023/09/24 10:02:47;;;;;;;1.55;0.80;;;22.10;48.00;;;;;;4810716;29;45360;-44
2023/09/24 10:05:13;;;;;;;1.33;1.00;;;22.10;48.00;;;;;;4821362;29;45451;-43
2023/09/24 10:07:39;;;;;;;1.57;1.00;;;22.10;48.00;;;;;;4814911;29;45388;-43
2023/09/24 10:10:32;;;;;;;1.40;1.10;;;22.10;48.10;;;;;;4824780;29;44640;-44
2023/09/24 10:12:58;;;;;;;1.30;1.00;;;22.10;48.00;;;;;;4832220;29;45893;-43
2023/09/24 10:15:28;;;;;;;1.60;0.90;;;22.10;48.00;;;;;;4821878;29;45422;-44
2023/09/24 10:18:11;;;;;;;1.88;1.10;;;22.10;48.00;;;;;;4830542;29;45499;-45
2023/09/24 10:20:49;;;;;;;1.60;1.00;;;22.20;48.10;;;;;;4825085;29;46093;-44
2023/09/24 10:23:30;;;;;;;1.58;1.05;;;22.20;48.10;;;;;;4824212;29;45778;-43
2023/09/24 10:26:00;;;;;;;1.50;0.88;;;22.20;48.20;;;;;;4824693;29;45375;-45
2023/09/24 10:28:48;;;;;;;1.40;0.90;;;22.10;48.10;;;;;;4824463;29;45380;-43
2023/09/24 10:31:16;;;;;;;1.33;1.00;;;22.10;48.10;;;;;;4815807;29;45977;-43
2023/09/24 10:34:02;;;;;;;1.45;0.80;;;22.10;48.10;;;;;;4827311;29;45301;-43
2023/09/24 10:36:29;;;;;;;1.40;0.98;;;22.20;48.20;;;;;;4818353;29;45251;-43
2023/09/24 10:39:11;;;;;;;1.58;1.02;;;22.10;48.20;;;;;;4824131;29;45295;-44
2023/09/24 10:42:09;;;;;;;1.67;0.80;;;22.10;48.10;;;;;;4823478;29;45321;-44
2023/09/24 10:44:35;;;;;;;1.85;1.05;;;22.10;48.10;;;;;;4837118;29;45306;-44
2023/09/24 10:47:23;;;;;;;1.48;0.80;;;22.10;48.10;;;;;;4818555;29;45302;-43
2023/09/24 10:49:50;;;;;;;1.40;0.80;;;22.10;48.20;;;;;;4836923;29;46216;-44
2023/09/24 10:52:15;;;;;;;0.98;0.70;;;22.10;48.20;;;;;;4823008;29;45501;-44
2023/09/24 10:54:41;;;;;;;1.50;0.93;;;22.20;48.30;;;;;;4839470;29;45309;-43
2023/09/24 10:57:07;;;;;;;1.00;0.80;;;22.10;48.20;;;;;;4826444;29;45756;-43
2023/09/24 10:59:33;;;;;;;1.40;0.93;;;22.10;48.20;;;;;;4834735;29;46068;-43
2023/09/24 11:02:14;;;;;;;1.70;0.70;;;22.20;48.20;;;;;;4816917;29;45359;-44
2023/09/24 11:04:40;;;;;;;1.60;0.90;;;22.20;48.20;;;;;;4836700;29;45308;-43
2023/09/24 11:07:09;;;;;;;1.90;0.90;;;22.20;48.20;;;;;;4825646;29;45375;-43
2023/09/24 11:09:34;;;;;;;1.25;0.90;;;22.20;48.30;;;;;;4827954;29;45819;-43
2023/09/24 11:12:01;;;;;;;1.33;0.82;;;22.20;48.30;;;;;;4826028;29;46148;-43
2023/09/24 11:14:26;;;;;;;0.90;0.77;;;22.20;48.20;;;;;;4831946;29;45094;-43
2023/09/24 11:16:55;;;;;;;1.40;0.80;;;22.20;48.30;;;;;;4816054;29;45861;-43
2023/09/24 11:19:40;;;;;;;1.80;0.90;;;22.20;48.30;;;;;;4828407;29;45244;-43
2023/09/24 11:22:22;;;;;;;1.48;0.88;;;22.20;48.30;;;;;;4827447;29;45434;-43
2023/09/24 11:25:05;;;;;;;2.20;0.82;;;22.20;48.30;;;;;;4834696;29;45242;-45
2023/09/24 11:27:32;;;;;;;1.33;0.70;;;22.20;48.30;;;;;;4816706;29;45447;-43
2023/09/24 11:29:58;;;;;;;1.40;0.80;;;22.20;48.30;;;;;;4839015;29;45304;-44
2023/09/24 11:32:25;;;;;;;1.23;0.77;;;22.20;48.30;;;;;;4812548;29;45048;-43
2023/09/24 11:35:04;;;;;;;1.20;0.90;;;22.20;48.30;;;;;;4838860;29;45322;-44
2023/09/24 11:37:29;;;;;;;2.67;0.90;;;22.20;48.30;;;;;;4828372;29;45275;-43
2023/09/24 11:39:55;;;;;;;0.70;0.70;;;22.20;48.30;;;;;;4840088;29;46452;-43
2023/09/24 11:42:20;;;;;;;1.25;0.70;;;22.20;48.30;;;;;;4824532;29;45322;-43
2023/09/24 11:44:46;;;;;;;0.93;0.68;;;22.20;48.30;;;;;;4839968;29;45662;-44
2023/09/24 11:47:12;;;;;;;1.30;0.70;;;22.20;48.30;;;;;;4821817;29;46285;-44
2023/09/24 11:49:37;;;;;;;1.37;0.73;;;22.20;48.30;;;;;;4839728;29;46385;-44
2023/09/24 11:52:07;;;;;;;1.23;0.70;;;22.20;48.30;;;;;;4825693;29;45936;-43
2023/09/24 11:54:33;;;;;;;1.10;0.70;;;22.20;48.30;;;;;;4838447;29;45735;-45
2023/09/24 11:56:59;;;;;;;1.65;0.77;;;22.20;48.30;;;;;;4831280;29;45453;-43
2023/09/24 11:59:24;;;;;;;0.77;0.60;;;22.20;48.30;;;;;;4837436;29;46249;-43
2023/09/24 12:01:50;;;;;;;1.00;0.60;;;22.20;48.30;;;;;;4821698;29;45441;-43
2023/09/24 12:04:15;;;;;;;0.80;0.70;;;22.20;48.30;;;;;;4829456;29;45050;-44
2023/09/24 12:06:41;;;;;;;1.30;0.70;;;22.20;48.30;;;;;;4828472;29;45295;-44
2023/09/24 12:09:06;;;;;;;1.17;0.67;;;22.20;48.30;;;;;;4842203;29;46486;-44
2023/09/24 12:11:32;;;;;;;1.43;0.77;;;22.20;48.40;;;;;;4816040;29;45174;-44
2023/09/24 12:13:57;;;;;;;1.20;0.77;;;22.20;48.40;;;;;;4841008;29;46681;-44
2023/09/24 12:16:23;;;;;;;2.47;0.70;;;22.20;48.40;;;;;;4812360;29;45942;-43
2023/09/24 12:18:48;;;;;;;1.47;0.70;;;22.20;48.40;;;;;;4840590;29;45896;-44
2023/09/24 12:21:15;;;;;;;1.50;0.80;;;22.20;48.30;;;;;;4816573;29;45506;-51
2023/09/24 12:23:42;;;;;;;1.00;0.60;;;22.20;48.30;;;;;;4814861;29;45683;-43
2023/09/24 12:26:07;;;;;;;1.33;0.70;;;22.20;48.30;;;;;;4826130;29;45588;-44
2023/09/24 12:28:33;;;;;;;1.27;0.50;;;22.20;48.40;;;;;;4827394;29;46236;-43
2023/09/24 12:30:59;;;;;;;1.67;0.60;;;22.30;48.40;;;;;;4816451;29;45242;-43
2023/09/24 12:33:24;;;;;;;1.20;0.60;;;22.30;48.40;;;;;;4816608;29;45297;-43
2023/09/24 12:35:51;;;;;;;0.90;0.70;;;22.30;48.40;;;;;;4826596;29;45269;-43
2023/09/24 12:38:16;;;;;;;0.90;0.60;;;22.30;48.40;;;;;;4835322;29;46139;-43
2023/09/24 12:40:42;;;;;;;1.33;0.70;;;22.30;48.40;;;;;;4821481;29;46295;-44
2023/09/24 12:43:07;;;;;;;1.00;0.70;;;22.30;48.50;;;;;;4837350;29;46760;-44
2023/09/24 12:45:33;;;;;;;0.83;0.50;;;22.30;48.40;;;;;;4816869;29;46006;-44
2023/09/24 12:47:58;;;;;;;0.83;0.60;;;22.20;48.40;;;;;;4838137;29;45297;-45
2023/09/24 12:50:25;;;;;;;0.90;0.50;;;22.20;48.40;;;;;;4828089;29;45561;-43
2023/09/24 12:52:51;;;;;;;1.03;0.70;;;22.30;48.40;;;;;;4837594;29;45318;-44
2023/09/24 12:55:16;;;;;;;1.60;0.60;;;22.30;48.40;;;;;;4827177;29;45894;-44
2023/09/24 12:57:42;;;;;;;0.93;0.60;;;22.30;48.40;;;;;;4831977;29;45949;-43
2023/09/24 13:00:11;;;;;;;1.07;0.60;;;22.30;48.40;;;;;;4837613;29;45651;-44
2023/09/24 13:02:46;;;;;;;1.08;0.60;;;22.30;48.40;;;;;;4815843;29;46270;-43
2023/09/24 13:05:12;;;;;;;2.05;0.80;;;22.30;48.40;;;;;;4826722;29;44915;-44
2023/09/24 13:07:39;;;;;;;1.20;0.80;;;22.30;48.40;;;;;;4832294;29;46197;-44
2023/09/24 13:10:06;;;;;;;0.98;0.80;;;22.30;48.40;;;;;;4840120;29;45744;-43
2023/09/24 13:12:32;;;;;;;0.65;0.50;;;22.30;48.60;;;;;;4827417;29;45690;-43
2023/09/24 13:14:57;;;;;;;0.98;0.60;;;22.30;48.40;;;;;;4836557;29;45228;-43
2023/09/24 13:17:23;;;;;;;1.75;0.70;;;22.30;48.40;;;;;;4817462;29;45881;-44
2023/09/24 13:19:49;;;;;;;1.20;0.55;;;22.30;48.40;;;;;;4845000;29;45528;-44
2023/09/24 13:22:15;;;;;;;0.68;0.50;;;22.30;48.40;;;;;;4820399;29;46917;-43
2023/09/24 13:24:40;;;;;;;1.50;0.70;;;22.30;48.50;;;;;;4835353;29;45390;-45
2023/09/24 13:27:06;;;;;;;0.80;0.60;;;22.30;48.40;;;;;;4831786;29;45343;-44
2023/09/24 13:29:32;;;;;;;1.10;0.60;;;22.30;48.40;;;;;;4838068;29;45040;-43
2023/09/24 13:31:57;;;;;;;0.70;0.40;;;22.30;48.40;;;;;;4821674;29;46353;-45
2023/09/24 13:34:23;;;;;;;0.68;0.50;;;22.30;48.50;;;;;;4831053;29;46492;-43
2023/09/24 13:36:49;;;;;;;1.33;0.57;;;22.40;48.60;;;;;;4788651;29;47803;-43
2023/09/24 13:39:14;;;;;;;0.70;0.50;;;22.30;48.40;;;;;;4847349;29;45354;-43
2023/09/24 13:41:40;;;;;;;0.77;0.60;;;22.30;48.40;;;;;;4833613;29;45556;-44
2023/09/24 13:44:06;;;;;;;0.90;0.60;;;22.30;48.50;;;;;;4849862;29;44684;-43
2023/09/24 13:46:31;;;;;;;0.70;0.43;;;22.30;48.50;;;;;;4814748;29;46713;-44
2023/09/24 13:49:04;;;;;;;1.03;0.40;;;22.30;48.50;;;;;;4828724;29;45373;-43
2023/09/24 13:51:29;;;;;;;1.65;0.55;;;22.30;48.50;;;;;;4831672;29;45367;-44
2023/09/24 13:53:55;;;;;;;0.77;0.50;;;22.30;48.50;;;;;;4854022;29;45152;-43
2023/09/24 13:56:20;;;;;;;1.20;0.60;;;22.30;48.50;;;;;;4834035;29;45267;-44
2023/09/24 13:58:46;;;;;;;1.05;0.40;;;22.30;48.50;;;;;;4833384;29;45501;-43
2023/09/24 14:01:11;;;;;;;0.88;0.63;;;22.30;48.50;;;;;;4808898;29;45471;-44
2023/09/24 14:03:37;;;;;;;0.90;0.60;;;22.30;48.50;;;;;;4826672;29;45209;-43
2023/09/24 14:06:03;;;;;;;0.85;0.55;;;22.30;48.50;;;;;;4833916;29;45596;-45
2023/09/24 14:14:12;;;;;;;0.82;0.47;;;22.40;48.50;;;;;;4839196;29;46327;-43
2023/09/24 14:16:44;;;;;;;0.82;0.50;;;22.40;48.50;;;;;;4819715;29;46481;-43
2023/09/24 14:19:10;;;;;;;0.83;0.50;;;22.40;48.60;;;;;;4848635;29;45293;-44
2023/09/24 14:21:36;;;;;;;1.38;0.50;;;22.40;48.60;;;;;;4830203;29;45344;-44
2023/09/24 14:24:02;;;;;;;0.73;0.50;;;22.40;48.60;;;;;;4831413;29;46327;-44
2023/09/24 14:26:30;;;;;;;1.15;0.60;;;22.40;48.60;;;;;;4829452;29;46014;-43
2023/09/24 14:28:59;;;;;;;0.67;0.50;;;22.40;48.60;;;;;;4836261;29;45213;-43
2023/09/24 14:31:25;;;;;;;0.65;0.50;;;22.40;48.60;;;;;;4814418;29;45257;-44
2023/09/24 14:33:51;;;;;;;0.60;0.40;;;22.40;48.60;;;;;;4833315;29;45299;-44
2023/09/24 14:36:18;;;;;;;0.50;0.40;;;22.40;48.60;;;;;;4833818;29;49139;-45
2023/09/24 14:38:44;;;;;;;0.70;0.30;;;22.40;48.60;;;;;;4818583;29;45331;-43
2023/09/24 14:41:11;;;;;;;0.80;0.50;;;22.40;48.60;;;;;;4838839;29;45350;-43
2023/09/24 14:43:37;;;;;;;0.65;0.40;;;22.40;48.60;;;;;;4840631;29;44934;-43
2023/09/24 14:46:03;;;;;;;0.80;0.50;;;22.40;48.60;;;;;;4826290;29;45188;-44
2023/09/24 14:48:28;;;;;;;0.50;0.47;;;22.40;48.60;;;;;;4843052;29;45120;-44
2023/09/24 14:50:55;;;;;;;0.70;0.50;;;22.40;48.60;;;;;;4832740;29;45393;-43
2023/09/24 14:53:21;;;;;;;0.80;0.47;;;22.40;48.60;;;;;;4840524;29;45668;-43
2023/09/24 14:55:47;;;;;;;1.10;0.63;;;22.40;48.60;;;;;;4805915;29;45526;-43
2023/09/24 14:58:13;;;;;;;0.63;0.40;;;22.40;48.60;;;;;;4846324;29;45328;-43
2023/09/24 15:00:38;;;;;;;1.02;0.60;;;22.40;48.60;;;;;;4810369;29;46450;-43
2023/09/24 15:03:04;;;;;;;0.85;0.47;;;22.40;48.60;;;;;;4808437;29;45486;-44
2023/09/24 15:05:29;;;;;;;0.75;0.40;;;22.40;48.60;;;;;;4811339;29;45490;-45
2023/09/24 15:07:55;;;;;;;0.80;0.40;;;22.40;48.60;;;;;;4843054;29;45259;-43
2023/09/24 15:10:22;;;;;;;1.30;0.40;;;22.40;48.60;;;;;;4842197;29;46269;-43
2023/09/24 15:12:48;;;;;;;0.60;0.40;;;22.40;48.60;;;;;;4833430;29;45243;-43
2023/09/24 15:15:14;;;;;;;0.70;0.50;;;22.40;48.60;;;;;;4807408;29;45204;-46
2023/09/24 15:17:40;;;;;;;0.60;0.43;;;22.40;48.60;;;;;;4806399;29;45326;-43
2023/09/24 15:20:06;;;;;;;1.17;0.50;;;22.40;48.60;;;;;;4805984;29;45908;-42
2023/09/24 15:22:32;;;;;;;0.70;0.40;;;22.40;48.60;;;;;;4783492;29;45314;-43
2023/09/24 15:24:59;;;;;;;0.90;0.40;;;22.40;48.60;;;;;;4808974;29;46671;-43
2023/09/24 15:27:24;;;;;;;0.57;0.40;;;22.40;48.60;;;;;;4827722;29;45911;-44
2023/09/24 15:29:50;;;;;;;0.67;0.40;;;22.50;48.60;;;;;;4826161;29;45572;-44
2023/09/24 15:32:15;;;;;;;0.57;0.40;;;22.40;48.60;;;;;;4814347;29;45646;-43
2023/09/24 15:34:41;;;;;;;1.20;0.40;;;22.40;48.60;;;;;;4815323;29;45636;-43
2023/09/24 15:37:06;;;;;;;0.40;0.33;;;22.40;48.60;;;;;;4819573;29;45474;-43
2023/09/24 15:39:32;;;;;;;0.60;0.37;;;22.50;48.60;;;;;;4834254;29;45494;-43
2023/09/24 15:41:58;;;;;;;0.80;0.40;;;22.50;48.60;;;;;;4823104;29;45631;-43
2023/09/24 15:44:24;;;;;;;0.60;0.40;;;22.50;48.60;;;;;;4836420;29;46462;-43
2023/09/24 15:46:49;;;;;;;1.10;0.38;;;22.50;48.60;;;;;;4816316;29;45319;-44
2023/09/24 15:49:15;;;;;;;0.73;0.43;;;22.40;48.60;;;;;;4836308;29;45787;-43
2023/09/24 15:51:40;;;;;;;0.55;0.40;;;22.50;48.70;;;;;;4788428;29;45394;-44
2023/09/24 15:54:06;;;;;;;0.90;0.50;;;22.50;48.60;;;;;;4837280;29;45899;-44